Time;durP1;ratioP1;P1;durP2;ratioP2;P2;SDS_P1;SDS_P2;PMS_P1;PMS_P2;Temp;Humidity;BMP_temperature;BMP_pressure;BME280_temperature;BME280_humidity;BME280_pressure;Samples;Min_cycle;Max_cycle;Signal;HPM_P1;HPM_P2
2023/01/13 00:00:47;;;;;;;1.60;1.10;;;;;;;;;;5071401;28;20055;-60
2023/01/13 00:03:12;;;;;;;1.45;0.80;;;;;;;;;;5073081;28;20115;-61
2023/01/13 00:05:38;;;;;;;1.55;0.90;;;;;;;;;;5070952;28;20348;-61
2023/01/13 00:08:05;;;;;;;4.95;1.27;;;;;;;;;;5073503;28;20115;-60
2023/01/13 00:10:32;;;;;;;2.38;0.90;;;;;;;;;;5077881;28;20043;-61
2023/01/13 00:12:57;;;;;;;2.83;1.10;;;;;;;;;;5072847;28;20033;-61
2023/01/13 00:15:22;;;;;;;1.45;0.95;;;;;;;;;;5078785;28;20039;-62
2023/01/13 00:17:48;;;;;;;2.80;1.10;;;;;;;;;;5075659;28;20057;-61
2023/01/13 00:20:13;;;;;;;2.58;1.25;;;;;;;;;;5068422;28;20024;-62
2023/01/13 00:22:39;;;;;;;1.25;0.90;;;;;;;;;;5072260;28;20119;-61
2023/01/13 00:25:05;;;;;;;1.63;1.00;;;;;;;;;;5072580;28;20036;-62
2023/01/13 00:27:31;;;;;;;2.25;1.05;;;;;;;;;;5071811;28;20401;-62
2023/01/13 00:29:57;;;;;;;2.10;1.10;;;;;;;;;;5071754;28;20078;-63
2023/01/13 00:32:22;;;;;;;1.27;1.15;;;;;;;;;;5073717;28;20024;-62
2023/01/13 00:34:47;;;;;;;1.10;1.05;;;;;;;;;;5077459;28;20040;-62
2023/01/13 00:37:13;;;;;;;3.60;1.73;;;;;;;;;;5093410;28;20035;-62
2023/01/13 00:39:40;;;;;;;2.60;1.30;;;;;;;;;;5091046;28;20105;-62
2023/01/13 00:44:50;;;;;;;3.90;1.67;;;;;;;;;;5067988;28;20043;-63
2023/01/13 00:47:15;;;;;;;6.00;1.70;;;;;;;;;;5066801;28;20026;-64
2023/01/13 00:49:41;;;;;;;2.40;1.73;;;;;;;;;;5071813;28;20032;-63
2023/01/13 00:52:06;;;;;;;4.97;1.73;;;;;;;;;;5073813;28;20111;-63
2023/01/13 00:54:31;;;;;;;4.40;1.90;;;;;;;;;;5089814;28;20032;-63
2023/01/13 00:56:57;;;;;;;5.10;1.67;;;;;;;;;;5076230;28;20037;-63
2023/01/13 00:59:22;;;;;;;6.47;1.40;;;;;;;;;;5072605;28;20044;-62
2023/01/13 01:01:48;;;;;;;2.88;1.50;;;;;;;;;;5065903;28;20055;-64
2023/01/13 01:04:13;;;;;;;4.05;1.60;;;;;;;;;;5071316;28;20082;-63
2023/01/13 01:06:38;;;;;;;4.40;1.55;;;;;;;;;;5069542;28;20039;-63
2023/01/13 01:09:05;;;;;;;3.55;1.30;;;;;;;;;;5063610;28;20497;-64
2023/01/13 01:11:32;;;;;;;3.08;1.33;;;;;;;;;;5060829;28;20112;-64
2023/01/13 01:14:00;;;;;;;3.03;1.45;;;;;;;;;;5063065;28;20037;-66
2023/01/13 01:16:27;;;;;;;7.22;1.80;;;;;;;;;;5056812;28;20040;-64
2023/01/13 01:18:54;;;;;;;7.57;1.35;;;;;;;;;;5071139;28;20043;-65
2023/01/13 01:21:21;;;;;;;8.00;1.65;;;;;;;;;;5069887;28;20021;-65
2023/01/13 01:23:47;;;;;;;2.60;1.27;;;;;;;;;;5079918;28;20043;-64
2023/01/13 01:26:19;;;;;;;6.32;1.55;;;;;;;;;;5076318;28;20029;-63
2023/01/13 01:28:45;;;;;;;5.93;1.30;;;;;;;;;;5067331;28;20032;-63
2023/01/13 01:31:16;;;;;;;9.32;1.60;;;;;;;;;;5070306;28;20024;-64
2023/01/13 01:33:42;;;;;;;4.97;1.42;;;;;;;;;;5067548;28;20835;-63
2023/01/13 01:36:10;;;;;;;5.93;1.45;;;;;;;;;;5082554;28;20025;-64
2023/01/13 01:38:35;;;;;;;6.10;1.70;;;;;;;;;;5071489;28;20477;-63
2023/01/13 01:41:01;;;;;;;4.03;1.65;;;;;;;;;;5072859;28;20026;-64
2023/01/13 01:44:05;;;;;;;7.72;2.00;;;;;;;;;;5075702;28;20024;-63
2023/01/13 01:46:36;;;;;;;5.15;1.27;;;;;;;;;;5013466;28;20092;-63
2023/01/13 01:49:04;;;;;;;7.68;1.40;;;;;;;;;;5011218;28;20379;-64
2023/01/13 01:51:34;;;;;;;4.75;1.75;;;;;;;;;;5008619;28;20038;-64
2023/01/13 01:54:03;;;;;;;4.38;1.40;;;;;;;;;;5007997;28;20034;-64
2023/01/13 01:56:29;;;;;;;7.45;1.58;;;;;;;;;;5008775;28;20030;-64
2023/01/13 01:58:55;;;;;;;5.55;1.45;;;;;;;;;;4989387;28;20049;-63
2023/01/13 02:01:20;;;;;;;5.30;1.60;;;;;;;;;;5007660;28;20030;-63
2023/01/13 02:03:55;;;;;;;3.63;1.42;;;;;;;;;;5007314;28;20038;-63
2023/01/13 02:06:21;;;;;;;4.25;0.93;;;;;;;;;;5002901;28;20501;-63
2023/01/13 02:08:46;;;;;;;5.57;1.65;;;;;;;;;;5010470;28;20038;-63
2023/01/13 02:14:16;;;;;;;7.13;1.70;;;;;;;;;;5008704;28;20077;-63
2023/01/13 02:17:05;;;;;;;5.78;1.55;;;;;;;;;;5023170;28;20044;-63
2023/01/13 02:19:52;;;;;;;6.95;1.67;;;;;;;;;;5067346;28;20394;-63
2023/01/13 02:22:40;;;;;;;7.18;1.48;;;;;;;;;;5070322;28;20075;-63
2023/01/13 02:25:17;;;;;;;8.20;1.10;;;;;;;;;;5068818;28;20052;-63
2023/01/13 02:28:11;;;;;;;8.40;1.55;;;;;;;;;;5069102;28;20166;-63
2023/01/13 02:33:30;;;;;;;10.85;1.67;;;;;;;;;;5068857;28;20085;-63
2023/01/13 02:35:59;;;;;;;15.27;2.47;;;;;;;;;;5069405;28;20060;-63
2023/01/13 02:38:33;;;;;;;7.38;1.80;;;;;;;;;;5066599;28;20033;-63
2023/01/13 02:44:07;;;;;;;9.85;1.90;;;;;;;;;;5076332;28;20058;-64
2023/01/13 02:46:33;;;;;;;9.32;1.70;;;;;;;;;;5081804;28;20055;-64
2023/01/13 02:49:03;;;;;;;10.40;1.63;;;;;;;;;;5068378;28;20028;-64
2023/01/13 02:51:31;;;;;;;10.32;1.83;;;;;;;;;;5068205;28;20104;-64
2023/01/13 02:54:04;;;;;;;5.97;1.58;;;;;;;;;;5069128;28;20054;-64
2023/01/13 02:56:33;;;;;;;9.55;1.70;;;;;;;;;;5069601;28;20078;-64
2023/01/13 02:58:59;;;;;;;9.05;1.80;;;;;;;;;;5067237;28;20052;-63
2023/01/13 03:01:25;;;;;;;7.53;1.35;;;;;;;;;;5069911;28;20119;-64
2023/01/13 03:03:50;;;;;;;8.25;1.50;;;;;;;;;;5067189;28;20034;-64
2023/01/13 03:06:15;;;;;;;7.60;1.73;;;;;;;;;;5069950;28;20085;-64
2023/01/13 03:08:48;;;;;;;9.93;2.10;;;;;;;;;;5074612;28;20093;-64
2023/01/13 03:11:16;;;;;;;9.27;1.80;;;;;;;;;;5071372;28;20039;-64
2023/01/13 03:13:57;;;;;;;7.30;1.48;;;;;;;;;;5073571;28;20846;-64
2023/01/13 03:16:34;;;;;;;8.88;1.73;;;;;;;;;;5090787;28;20028;-64
2023/01/13 03:19:37;;;;;;;10.40;2.22;;;;;;;;;;5068635;28;20044;-64
2023/01/13 03:22:41;;;;;;;8.70;2.25;;;;;;;;;;5089872;28;20055;-64
2023/01/13 03:25:17;;;;;;;10.07;1.98;;;;;;;;;;5060886;28;20040;-64
2023/01/13 03:28:19;;;;;;;9.13;1.65;;;;;;;;;;5060567;28;21862;-64
2023/01/13 03:30:53;;;;;;;6.35;1.30;;;;;;;;;;5047881;28;20045;-64
2023/01/13 03:33:25;;;;;;;8.35;1.90;;;;;;;;;;5059039;28;20086;-64
2023/01/13 03:35:56;;;;;;;8.43;2.05;;;;;;;;;;5072636;28;20039;-63
2023/01/13 03:38:30;;;;;;;13.33;1.80;;;;;;;;;;5070730;28;20052;-64
2023/01/13 03:41:00;;;;;;;7.22;1.75;;;;;;;;;;5064643;28;20081;-63
2023/01/13 03:46:22;;;;;;;12.93;2.08;;;;;;;;;;5066071;28;20048;-63
2023/01/13 03:48:54;;;;;;;11.35;1.90;;;;;;;;;;5079108;28;20032;-63
2023/01/13 03:51:21;;;;;;;11.57;1.98;;;;;;;;;;5090568;28;20081;-63
2023/01/13 03:53:52;;;;;;;12.57;2.20;;;;;;;;;;5071653;28;20025;-63
2023/01/13 03:56:29;;;;;;;5.57;1.40;;;;;;;;;;5069931;28;20078;-63
2023/01/13 03:58:57;;;;;;;8.95;1.95;;;;;;;;;;5069217;28;20032;-63
2023/01/13 04:01:41;;;;;;;14.73;2.05;;;;;;;;;;5065257;28;20036;-63
2023/01/13 04:04:11;;;;;;;14.40;2.25;;;;;;;;;;5071752;28;20051;-62
2023/01/13 04:06:40;;;;;;;11.65;2.17;;;;;;;;;;5069189;28;20093;-62
2023/01/13 04:09:41;;;;;;;12.00;2.53;;;;;;;;;;5071794;28;20029;-62
2023/01/13 04:12:16;;;;;;;10.52;1.58;;;;;;;;;;5034512;28;20060;-63
2023/01/13 04:14:42;;;;;;;9.18;1.92;;;;;;;;;;5065383;28;20036;-62
2023/01/13 04:17:07;;;;;;;11.52;2.10;;;;;;;;;;5079617;28;20033;-62
2023/01/13 04:19:33;;;;;;;10.20;2.10;;;;;;;;;;5061046;28;20085;-62
2023/01/13 04:21:58;;;;;;;9.55;1.77;;;;;;;;;;5071028;28;20037;-64
2023/01/13 04:24:24;;;;;;;4.38;1.17;;;;;;;;;;5071470;28;20340;-62
2023/01/13 04:26:49;;;;;;;6.47;1.38;;;;;;;;;;5072709;28;20435;-62
2023/01/13 04:29:15;;;;;;;5.55;1.25;;;;;;;;;;5071930;28;20037;-63
2023/01/13 04:31:41;;;;;;;11.82;1.98;;;;;;;;;;5079847;28;20674;-62
2023/01/13 04:34:07;;;;;;;5.45;1.67;;;;;;;;;;5073676;28;20037;-63
2023/01/13 04:36:32;;;;;;;4.03;1.35;;;;;;;;;;5071827;28;20500;-62
2023/01/13 04:38:57;;;;;;;4.57;1.20;;;;;;;;;;5073097;28;20086;-62
2023/01/13 04:41:23;;;;;;;4.90;1.23;;;;;;;;;;5070390;28;20037;-63
2023/01/13 04:43:48;;;;;;;5.72;1.42;;;;;;;;;;5071787;28;20040;-63
2023/01/13 04:46:14;;;;;;;4.40;1.10;;;;;;;;;;5073843;28;20040;-62
2023/01/13 04:48:39;;;;;;;4.38;1.40;;;;;;;;;;5067216;28;20119;-62
2023/01/13 04:51:04;;;;;;;3.35;1.00;;;;;;;;;;5072521;28;20477;-62
2023/01/13 04:53:30;;;;;;;6.53;1.40;;;;;;;;;;5071231;28;20081;-62
2023/01/13 04:55:55;;;;;;;5.43;1.55;;;;;;;;;;5073674;28;20484;-62
2023/01/13 04:58:21;;;;;;;5.57;1.63;;;;;;;;;;5070701;28;20024;-63
2023/01/13 05:00:46;;;;;;;6.80;1.63;;;;;;;;;;5071799;28;20470;-62
2023/01/13 05:03:12;;;;;;;3.97;1.10;;;;;;;;;;5071257;28;20067;-62
2023/01/13 05:05:37;;;;;;;5.95;1.13;;;;;;;;;;5072512;28;20559;-62
2023/01/13 05:08:03;;;;;;;6.60;1.40;;;;;;;;;;5072112;28;20040;-62
2023/01/13 05:10:29;;;;;;;10.38;1.75;;;;;;;;;;5072932;28;20077;-63
2023/01/13 05:18:24;;;;;;;13.90;1.92;;;;;;;;;;5072629;28;20491;-63
2023/01/13 05:20:50;;;;;;;12.20;1.90;;;;;;;;;;5090558;28;20032;-64
2023/01/13 05:25:59;;;;;;;6.35;1.30;;;;;;;;;;5090093;28;20039;-62
2023/01/13 05:28:24;;;;;;;5.50;1.42;;;;;;;;;;5074326;28;20040;-62
2023/01/13 05:30:51;;;;;;;5.47;1.63;;;;;;;;;;5070031;28;20464;-63
2023/01/13 05:33:19;;;;;;;7.50;1.50;;;;;;;;;;5072269;28;20028;-63
2023/01/13 05:35:46;;;;;;;7.72;1.42;;;;;;;;;;5066682;28;20028;-62
2023/01/13 05:38:12;;;;;;;11.00;2.17;;;;;;;;;;5065531;28;20064;-62
2023/01/13 05:43:25;;;;;;;15.85;2.13;;;;;;;;;;5065846;28;20089;-62
2023/01/13 05:45:54;;;;;;;9.02;2.45;;;;;;;;;;5055341;28;20039;-62
2023/01/13 05:48:21;;;;;;;13.70;3.13;;;;;;;;;;5052283;28;20032;-62
2023/01/13 05:50:48;;;;;;;11.68;2.55;;;;;;;;;;5059649;28;20029;-62
2023/01/13 05:53:14;;;;;;;9.75;2.22;;;;;;;;;;5052512;28;20029;-62
2023/01/13 05:55:41;;;;;;;8.20;1.77;;;;;;;;;;5051994;28;20179;-62
2023/01/13 05:58:08;;;;;;;5.80;1.67;;;;;;;;;;5071861;28;20028;-62
2023/01/13 06:00:33;;;;;;;12.80;2.25;;;;;;;;;;5071872;28;20056;-62
2023/01/13 06:02:59;;;;;;;10.80;2.22;;;;;;;;;;5089510;28;20036;-62
2023/01/13 06:05:24;;;;;;;5.15;1.75;;;;;;;;;;5089436;28;20525;-62
2023/01/13 06:07:50;;;;;;;4.82;1.48;;;;;;;;;;5060314;28;20115;-62
2023/01/13 06:10:16;;;;;;;5.93;1.55;;;;;;;;;;5072556;28;20037;-62
2023/01/13 06:12:41;;;;;;;10.10;1.58;;;;;;;;;;5088613;28;20063;-61
2023/01/13 06:15:07;;;;;;;10.40;2.22;;;;;;;;;;5075508;28;20059;-62
2023/01/13 06:17:32;;;;;;;8.98;2.00;;;;;;;;;;5086572;28;20105;-62
2023/01/13 06:19:58;;;;;;;9.23;1.80;;;;;;;;;;5092432;28;20043;-62
2023/01/13 06:22:27;;;;;;;13.30;2.70;;;;;;;;;;5073564;28;20595;-64
2023/01/13 06:24:53;;;;;;;6.45;1.50;;;;;;;;;;5071984;28;20032;-61
2023/01/13 06:27:20;;;;;;;6.22;1.70;;;;;;;;;;5085730;28;20028;-62
2023/01/13 06:29:46;;;;;;;9.70;2.20;;;;;;;;;;5091724;28;20038;-67
2023/01/13 06:32:15;;;;;;;5.55;1.45;;;;;;;;;;5070363;28;20377;-61
2023/01/13 06:34:42;;;;;;;7.38;1.83;;;;;;;;;;5064277;28;20081;-61
2023/01/13 06:37:11;;;;;;;11.80;1.77;;;;;;;;;;5085572;28;20036;-62
2023/01/13 06:39:36;;;;;;;7.28;1.98;;;;;;;;;;5072323;28;20028;-63
2023/01/13 06:44:47;;;;;;;7.63;1.98;;;;;;;;;;5088686;28;20082;-62
2023/01/13 06:47:13;;;;;;;6.28;1.60;;;;;;;;;;5076621;28;20461;-62
2023/01/13 06:49:38;;;;;;;8.82;1.88;;;;;;;;;;5076104;28;20071;-61
2023/01/13 06:52:04;;;;;;;8.55;2.33;;;;;;;;;;5086597;28;20431;-64
2023/01/13 06:54:30;;;;;;;8.57;1.90;;;;;;;;;;5081154;28;20392;-63
2023/01/13 06:56:55;;;;;;;6.25;1.60;;;;;;;;;;5053534;28;20037;-62
2023/01/13 06:59:21;;;;;;;8.38;1.98;;;;;;;;;;5062503;28;20063;-63
2023/01/13 07:01:47;;;;;;;8.35;2.28;;;;;;;;;;5050532;28;20032;-61
2023/01/13 07:04:12;;;;;;;9.07;1.65;;;;;;;;;;5031618;28;20029;-61
2023/01/13 07:06:37;;;;;;;8.82;1.83;;;;;;;;;;5049062;28;20036;-61
2023/01/13 07:09:03;;;;;;;8.18;1.67;;;;;;;;;;5071355;28;20445;-61
2023/01/13 07:11:28;;;;;;;6.80;1.83;;;;;;;;;;5059934;28;20068;-61
2023/01/13 07:16:37;;;;;;;4.10;1.20;;;;;;;;;;5051149;28;20040;-61
2023/01/13 07:19:03;;;;;;;5.30;1.42;;;;;;;;;;5071378;28;20020;-61
2023/01/13 07:21:28;;;;;;;11.00;2.20;;;;;;;;;;5065002;28;20028;-61
2023/01/13 07:23:54;;;;;;;9.77;1.83;;;;;;;;;;5071345;28;20051;-61
2023/01/13 07:26:19;;;;;;;10.60;1.92;;;;;;;;;;5066225;28;20043;-61
2023/01/13 07:28:44;;;;;;;6.57;1.55;;;;;;;;;;5069944;28;20028;-61
2023/01/13 07:31:15;;;;;;;11.05;2.42;;;;;;;;;;5066523;28;20381;-61
2023/01/13 07:33:40;;;;;;;5.78;1.92;;;;;;;;;;5048727;28;20040;-62
2023/01/13 07:36:07;;;;;;;9.23;2.55;;;;;;;;;;5031643;28;20041;-61
2023/01/13 07:38:33;;;;;;;8.52;1.60;;;;;;;;;;5066903;28;20432;-62
2023/01/13 07:43:30;;;;;;;7.13;1.70;;;;;;;;;;5069218;28;20033;-60
2023/01/13 07:43:47;;;;;;;6.93;1.77;;;;;;;;;;5038710;28;20041;-61
2023/01/13 07:46:13;;;;;;;7.00;1.70;;;;;;;;;;5050958;28;20091;-60
2023/01/13 07:48:38;;;;;;;7.97;1.40;;;;;;;;;;5023078;28;20030;-61
2023/01/13 07:51:07;;;;;;;11.43;2.65;;;;;;;;;;5041368;28;20462;-63
2023/01/13 07:53:32;;;;;;;8.95;1.80;;;;;;;;;;5039080;28;20466;-61
2023/01/13 07:55:59;;;;;;;6.60;1.80;;;;;;;;;;5052024;28;20040;-62
2023/01/13 07:58:26;;;;;;;6.25;1.30;;;;;;;;;;5054063;28;20405;-63
2023/01/13 08:00:51;;;;;;;6.18;1.60;;;;;;;;;;5069397;28;20056;-61
2023/01/13 08:03:17;;;;;;;4.63;1.20;;;;;;;;;;5082329;28;20034;-61
2023/01/13 08:05:42;;;;;;;4.07;1.25;;;;;;;;;;5092260;28;20783;-61
2023/01/13 08:08:08;;;;;;;4.28;1.45;;;;;;;;;;5075024;28;20056;-61
2023/01/13 08:10:33;;;;;;;8.98;2.20;;;;;;;;;;5072771;28;20063;-61
2023/01/13 08:13:18;;;;;;;7.10;1.23;;;;;;;;;;5075666;28;20125;-58
2023/01/13 08:15:45;;;;;;;3.67;1.23;;;;;;;;;;5060356;28;20032;-61
2023/01/13 08:18:11;;;;;;;3.42;1.17;;;;;;;;;;5094297;28;20480;-62
2023/01/13 08:20:36;;;;;;;5.03;1.27;;;;;;;;;;5091587;28;20027;-64
2023/01/13 08:23:02;;;;;;;6.45;1.80;;;;;;;;;;5076005;28;20035;-59
2023/01/13 08:25:28;;;;;;;8.30;1.85;;;;;;;;;;5093615;28;20030;-61
2023/01/13 08:27:54;;;;;;;7.80;1.52;;;;;;;;;;5088379;28;20037;-61
2023/01/13 08:30:20;;;;;;;9.93;2.35;;;;;;;;;;5071619;28;20036;-64
2023/01/13 08:32:47;;;;;;;10.57;1.60;;;;;;;;;;5073617;28;20040;-61
2023/01/13 08:35:12;;;;;;;3.30;1.38;;;;;;;;;;5094439;28;20480;-62
2023/01/13 08:37:38;;;;;;;3.63;1.48;;;;;;;;;;5090489;28;20059;-59
2023/01/13 08:40:04;;;;;;;13.00;2.03;;;;;;;;;;5073927;28;20044;-61
2023/01/13 08:42:30;;;;;;;7.40;1.80;;;;;;;;;;5071700;28;20036;-63
2023/01/13 08:44:56;;;;;;;11.95;1.85;;;;;;;;;;5076879;28;20024;-61
2023/01/13 08:47:22;;;;;;;7.35;1.92;;;;;;;;;;5071000;28;20077;-63
2023/01/13 08:49:48;;;;;;;8.95;1.80;;;;;;;;;;5071505;28;20074;-61
2023/01/13 08:52:13;;;;;;;8.70;1.63;;;;;;;;;;5073583;28;20052;-61
2023/01/13 08:54:39;;;;;;;7.53;1.83;;;;;;;;;;5071552;28;20554;-60
2023/01/13 08:57:05;;;;;;;3.95;1.48;;;;;;;;;;5072346;28;20201;-59
2023/01/13 08:59:30;;;;;;;6.82;1.58;;;;;;;;;;5063652;28;20091;-60
2023/01/13 09:01:56;;;;;;;5.78;1.63;;;;;;;;;;5051139;28;20033;-59
2023/01/13 09:04:23;;;;;;;6.60;1.58;;;;;;;;;;5052198;28;20032;-61
2023/01/13 09:06:50;;;;;;;10.55;2.17;;;;;;;;;;5070933;28;20058;-59
2023/01/13 09:09:16;;;;;;;9.27;2.47;;;;;;;;;;5071876;28;20033;-59
2023/01/13 09:14:32;;;;;;;6.75;1.80;;;;;;;;;;5050824;28;20121;-60
2023/01/13 09:16:58;;;;;;;7.57;1.85;;;;;;;;;;5040096;28;20029;-59
2023/01/13 09:19:25;;;;;;;12.20;2.10;;;;;;;;;;5054975;28;20146;-63
2023/01/13 09:21:51;;;;;;;10.18;2.13;;;;;;;;;;5051823;28;20375;-61
2023/01/13 09:24:18;;;;;;;6.80;2.03;;;;;;;;;;5049653;28;20040;-61
2023/01/13 09:26:44;;;;;;;14.27;2.28;;;;;;;;;;5061879;28;20037;-64
2023/01/13 09:29:09;;;;;;;9.57;1.98;;;;;;;;;;5070208;28;20461;-61
2023/01/13 09:31:34;;;;;;;6.90;1.40;;;;;;;;;;5065842;28;20033;-61
2023/01/13 09:36:45;;;;;;;9.05;2.15;;;;;;;;;;5072275;28;20039;-61
2023/01/13 09:39:10;;;;;;;4.38;1.80;;;;;;;;;;5051270;28;20041;-60
2023/01/13 09:44:49;;;;;;;7.47;1.73;;;;;;;;;;5051359;28;20052;-62
2023/01/13 09:47:29;;;;;;;4.93;1.77;;;;;;;;;;5063560;28;20126;-62
2023/01/13 09:50:12;;;;;;;15.13;2.33;;;;;;;;;;5058226;28;20469;-62
2023/01/13 09:52:38;;;;;;;6.38;1.95;;;;;;;;;;5071486;28;20249;-62
2023/01/13 09:55:08;;;;;;;15.30;2.45;;;;;;;;;;5067437;28;20025;-61
2023/01/13 09:57:36;;;;;;;7.55;2.10;;;;;;;;;;5071792;28;20032;-62
2023/01/13 10:00:23;;;;;;;8.38;2.08;;;;;;;;;;5077125;28;20066;-62
2023/01/13 10:03:14;;;;;;;7.57;2.15;;;;;;;;;;5070453;28;20469;-61
2023/01/13 10:05:43;;;;;;;8.90;2.05;;;;;;;;;;5061627;28;20059;-61
2023/01/13 10:08:14;;;;;;;12.00;2.22;;;;;;;;;;5072168;28;20036;-62
2023/01/13 10:10:44;;;;;;;11.07;2.20;;;;;;;;;;5080650;28;20036;-62
2023/01/13 10:13:20;;;;;;;13.85;2.38;;;;;;;;;;5084129;28;20530;-62
2023/01/13 10:16:01;;;;;;;13.27;2.53;;;;;;;;;;5081634;28;20032;-60
2023/01/13 10:18:55;;;;;;;10.80;2.00;;;;;;;;;;5063610;28;20513;-61
2023/01/13 10:22:04;;;;;;;8.75;2.03;;;;;;;;;;5066889;28;20481;-62
2023/01/13 10:24:51;;;;;;;7.82;1.40;;;;;;;;;;5070072;28;20040;-61
2023/01/13 10:27:33;;;;;;;14.77;2.72;;;;;;;;;;5058013;28;20039;-58
2023/01/13 10:30:09;;;;;;;13.32;2.53;;;;;;;;;;5076892;28;20060;-61
2023/01/13 10:32:34;;;;;;;7.22;2.30;;;;;;;;;;5065724;28;20025;-58
2023/01/13 10:35:01;;;;;;;7.90;2.15;;;;;;;;;;5071460;28;20114;-60
2023/01/13 10:37:27;;;;;;;11.27;1.92;;;;;;;;;;5070483;28;20381;-61
2023/01/13 10:40:00;;;;;;;10.45;2.00;;;;;;;;;;5070692;28;20468;-60
2023/01/13 10:42:25;;;;;;;9.57;2.45;;;;;;;;;;5070356;28;20032;-61
2023/01/13 10:44:59;;;;;;;10.50;2.25;;;;;;;;;;5073173;28;20032;-61
2023/01/13 10:47:35;;;;;;;9.68;2.58;;;;;;;;;;5077819;28;20063;-60
2023/01/13 10:50:10;;;;;;;7.50;2.10;;;;;;;;;;5085634;28;20021;-60
2023/01/13 10:52:42;;;;;;;14.38;2.60;;;;;;;;;;5083538;28;20397;-61
2023/01/13 10:55:37;;;;;;;10.90;1.92;;;;;;;;;;5068166;28;20070;-61
2023/01/13 10:58:20;;;;;;;7.75;1.65;;;;;;;;;;5071420;28;20040;-60
2023/01/13 11:00:47;;;;;;;6.75;1.65;;;;;;;;;;5079719;28;20048;-61
2023/01/13 11:03:16;;;;;;;12.15;2.20;;;;;;;;;;5060300;28;20033;-59
2023/01/13 11:06:19;;;;;;;12.85;2.33;;;;;;;;;;5070978;28;20273;-59
2023/01/13 11:08:48;;;;;;;9.80;2.33;;;;;;;;;;5078681;28;20048;-57
2023/01/13 11:11:40;;;;;;;14.98;2.25;;;;;;;;;;5091539;28;20028;-60
2023/01/13 11:14:32;;;;;;;13.95;2.58;;;;;;;;;;5070595;28;20043;-61
2023/01/13 11:17:01;;;;;;;7.72;1.95;;;;;;;;;;5069450;28;20429;-61
2023/01/13 11:19:29;;;;;;;8.75;2.13;;;;;;;;;;5069287;28;20024;-61
2023/01/13 11:22:11;;;;;;;10.75;2.10;;;;;;;;;;5072486;28;20460;-62
2023/01/13 11:24:43;;;;;;;14.68;3.03;;;;;;;;;;5080880;28;20028;-61
2023/01/13 11:27:14;;;;;;;8.75;2.20;;;;;;;;;;5086885;28;20028;-61
2023/01/13 11:30:02;;;;;;;9.95;2.38;;;;;;;;;;5097500;28;20171;-61
2023/01/13 11:32:32;;;;;;;16.35;2.53;;;;;;;;;;5081852;28;20042;-59
2023/01/13 11:35:08;;;;;;;7.28;1.80;;;;;;;;;;5098099;28;20491;-57
2023/01/13 11:37:39;;;;;;;6.82;1.90;;;;;;;;;;5088228;28;20135;-60
2023/01/13 11:40:24;;;;;;;11.95;2.63;;;;;;;;;;5076339;28;20111;-59
2023/01/13 11:43:02;;;;;;;11.20;2.15;;;;;;;;;;5075422;28;20533;-60
2023/01/13 11:45:44;;;;;;;7.53;1.40;;;;;;;;;;5075200;28;20154;-59
2023/01/13 11:48:16;;;;;;;14.30;2.28;;;;;;;;;;5067572;28;20377;-59
2023/01/13 11:50:49;;;;;;;6.43;1.98;;;;;;;;;;5074748;28;20240;-61
2023/01/13 11:53:37;;;;;;;7.30;1.95;;;;;;;;;;5070675;28;20186;-61
2023/01/13 11:56:29;;;;;;;13.43;2.97;;;;;;;;;;5079261;28;20036;-61
2023/01/13 11:59:02;;;;;;;15.85;2.47;;;;;;;;;;5075468;28;20047;-61
2023/01/13 12:01:51;;;;;;;23.50;2.00;;;;;;;;;;5097059;28;20024;-62
2023/01/13 12:04:22;;;;;;;11.20;2.42;;;;;;;;;;5083098;28;20481;-61
2023/01/13 12:07:19;;;;;;;8.27;2.17;;;;;;;;;;5061700;28;20181;-61
2023/01/13 12:09:45;;;;;;;12.77;2.13;;;;;;;;;;5056974;28;20036;-61
2023/01/13 12:12:34;;;;;;;9.45;2.15;;;;;;;;;;5056664;28;20419;-61
2023/01/13 12:15:05;;;;;;;9.65;2.67;;;;;;;;;;5097492;28;20081;-60
2023/01/13 12:17:39;;;;;;;;;;;;;;;;;;5077867;28;20028;-61
2023/01/13 12:20:42;;;;;;;7.93;1.88;;;;;;;;;;5056322;28;19936;-60
2023/01/13 12:23:23;;;;;;;14.82;1.98;;;;;;;;;;5078796;28;20078;-59
2023/01/13 12:25:54;;;;;;;12.00;2.45;;;;;;;;;;5077067;28;20028;-61
2023/01/13 12:28:27;;;;;;;10.52;2.22;;;;;;;;;;5076642;28;20036;-62
2023/01/13 12:31:00;;;;;;;9.35;2.17;;;;;;;;;;5079713;28;20115;-61
2023/01/13 12:33:53;;;;;;;11.32;2.05;;;;;;;;;;5059415;28;20021;-62
2023/01/13 12:36:40;;;;;;;11.65;2.38;;;;;;;;;;5092847;28;20472;-62
2023/01/13 12:39:43;;;;;;;10.25;2.13;;;;;;;;;;5081939;28;20041;-63
2023/01/13 12:45:09;;;;;;;10.07;2.75;;;;;;;;;;5073548;28;20131;-59
2023/01/13 12:47:44;;;;;;;13.18;2.40;;;;;;;;;;5082467;28;20128;-60
2023/01/13 12:50:24;;;;;;;12.25;2.55;;;;;;;;;;5076954;28;20046;-61
2023/01/13 12:52:52;;;;;;;7.57;2.15;;;;;;;;;;5053720;28;20037;-60
2023/01/13 12:55:31;;;;;;;8.63;2.10;;;;;;;;;;5066337;28;20115;-61
2023/01/13 12:58:05;;;;;;;9.70;2.40;;;;;;;;;;5070259;28;20028;-60
2023/01/13 13:01:05;;;;;;;16.92;2.70;;;;;;;;;;5070629;28;20385;-61
2023/01/13 13:03:34;;;;;;;5.47;1.52;;;;;;;;;;5070830;28;20032;-61
2023/01/13 13:06:12;;;;;;;8.80;2.10;;;;;;;;;;5073762;28;20044;-59
2023/01/13 13:08:49;;;;;;;4.90;1.85;;;;;;;;;;5070825;28;20040;-62
2023/01/13 13:14:38;;;;;;;11.55;2.45;;;;;;;;;;5086001;28;20488;-62
2023/01/13 13:17:24;;;;;;;11.48;2.08;;;;;;;;;;5093182;28;20060;-61
2023/01/13 13:19:50;;;;;;;8.05;2.90;;;;;;;;;;5090276;28;20549;-62
2023/01/13 13:22:18;;;;;;;10.02;2.90;;;;;;;;;;5093475;28;20085;-63
2023/01/13 13:24:50;;;;;;;8.02;2.15;;;;;;;;;;5079032;28;20037;-61
2023/01/13 13:27:24;;;;;;;14.38;2.50;;;;;;;;;;5069448;28;20469;-63
2023/01/13 13:30:00;;;;;;;6.63;2.17;;;;;;;;;;5072170;28;20086;-61
2023/01/13 13:32:34;;;;;;;6.88;2.38;;;;;;;;;;5069976;28;20039;-60
2023/01/13 13:35:27;;;;;;;15.55;3.80;;;;;;;;;;5092795;28;20028;-59
2023/01/13 13:46:46;;;;;;;11.98;2.63;;;;;;;;;;5070735;28;20457;-61
2023/01/13 13:49:32;;;;;;;8.77;2.17;;;;;;;;;;5071403;28;20020;-60
2023/01/13 13:52:02;;;;;;;12.35;3.53;;;;;;;;;;5075959;28;20031;-61
2023/01/13 13:54:29;;;;;;;8.15;2.25;;;;;;;;;;5077007;28;20037;-61
2023/01/13 13:56:54;;;;;;;7.80;2.42;;;;;;;;;;5068430;28;20534;-60
2023/01/13 13:59:26;;;;;;;12.07;2.63;;;;;;;;;;5066692;28;20061;-59
2023/01/13 14:02:02;;;;;;;7.85;2.70;;;;;;;;;;5050643;28;20509;-59
2023/01/13 14:04:35;;;;;;;11.63;2.47;;;;;;;;;;5049116;28;20115;-55
2023/01/13 14:07:14;;;;;;;8.90;2.35;;;;;;;;;;5057120;28;20025;-57
2023/01/13 14:09:44;;;;;;;9.32;2.45;;;;;;;;;;5050618;28;20044;-59
2023/01/13 14:12:23;;;;;;;11.23;2.00;;;;;;;;;;5050306;28;20033;-59
2023/01/13 14:14:49;;;;;;;7.10;2.20;;;;;;;;;;5053248;28;20029;-61
2023/01/13 14:17:22;;;;;;;10.35;2.30;;;;;;;;;;5048256;28;20025;-60
2023/01/13 14:20:00;;;;;;;10.05;3.05;;;;;;;;;;5038954;28;20028;-60
2023/01/13 14:22:26;;;;;;;9.02;2.58;;;;;;;;;;5053776;28;20039;-61
2023/01/13 14:24:56;;;;;;;12.50;2.30;;;;;;;;;;5050210;28;20037;-62
2023/01/13 14:27:25;;;;;;;9.07;2.70;;;;;;;;;;5051903;28;20032;-61
2023/01/13 14:29:52;;;;;;;15.43;3.15;;;;;;;;;;5036760;28;20041;-61
2023/01/13 14:32:20;;;;;;;15.20;3.40;;;;;;;;;;5051180;28;20471;-62
2023/01/13 14:34:45;;;;;;;11.98;2.80;;;;;;;;;;5069367;28;20532;-61
2023/01/13 14:37:34;;;;;;;6.35;2.60;;;;;;;;;;5071933;28;20024;-59
2023/01/13 14:39:59;;;;;;;18.08;3.42;;;;;;;;;;5031898;28;20034;-60
2023/01/13 14:42:27;;;;;;;12.05;2.28;;;;;;;;;;5048608;28;20029;-62
2023/01/13 14:44:52;;;;;;;12.55;2.53;;;;;;;;;;5050940;28;20036;-58
2023/01/13 14:47:31;;;;;;;13.27;3.00;;;;;;;;;;5071442;28;20115;-60
2023/01/13 14:50:01;;;;;;;7.13;3.03;;;;;;;;;;5055251;28;20042;-61
2023/01/13 14:52:29;;;;;;;11.95;3.03;;;;;;;;;;5047589;28;20028;-64
2023/01/13 14:55:04;;;;;;;8.48;2.95;;;;;;;;;;5036299;28;20033;-59
2023/01/13 14:57:31;;;;;;;12.02;3.92;;;;;;;;;;5046905;28;20040;-59
2023/01/13 15:00:15;;;;;;;13.82;2.33;;;;;;;;;;5051290;28;20040;-59
2023/01/13 15:02:41;;;;;;;7.63;2.38;;;;;;;;;;5065875;28;20046;-56
2023/01/13 15:05:16;;;;;;;8.38;2.13;;;;;;;;;;5071473;28;20036;-58
2023/01/13 15:07:49;;;;;;;7.20;2.20;;;;;;;;;;5079378;28;20380;-56
2023/01/13 15:10:18;;;;;;;8.50;2.97;;;;;;;;;;5082926;28;20457;-56
2023/01/13 15:12:44;;;;;;;7.38;3.38;;;;;;;;;;5078026;28;20029;-59
2023/01/13 15:15:23;;;;;;;13.23;3.35;;;;;;;;;;5076303;28;20034;-58
2023/01/13 15:17:49;;;;;;;10.07;2.50;;;;;;;;;;5091056;28;20078;-58
2023/01/13 15:20:16;;;;;;;11.30;2.60;;;;;;;;;;5082413;28;20029;-60
2023/01/13 15:22:41;;;;;;;10.60;3.75;;;;;;;;;;5069804;28;20064;-58
2023/01/13 15:25:08;;;;;;;10.48;3.13;;;;;;;;;;5066695;28;20057;-60
2023/01/13 15:27:35;;;;;;;13.50;3.67;;;;;;;;;;5069989;28;20036;-60
2023/01/13 15:30:01;;;;;;;13.30;3.03;;;;;;;;;;5074662;28;20115;-60
2023/01/13 15:32:27;;;;;;;15.27;3.28;;;;;;;;;;5084513;28;20107;-62
2023/01/13 15:34:52;;;;;;;13.95;3.38;;;;;;;;;;5068563;28;20532;-61
2023/01/13 15:37:18;;;;;;;11.43;3.65;;;;;;;;;;5070292;28;20020;-60
2023/01/13 15:39:44;;;;;;;14.75;4.03;;;;;;;;;;5070388;28;20033;-61
2023/01/13 15:47:58;;;;;;;14.68;3.80;;;;;;;;;;5070984;28;20130;-60
2023/01/13 15:50:24;;;;;;;17.80;3.60;;;;;;;;;;5070912;28;20024;-58
2023/01/13 15:52:50;;;;;;;14.52;4.05;;;;;;;;;;5069760;28;20033;-60
2023/01/13 15:55:15;;;;;;;16.67;4.82;;;;;;;;;;5069032;28;20081;-60
2023/01/13 15:57:47;;;;;;;18.60;4.40;;;;;;;;;;5068401;28;21863;-61
2023/01/13 16:00:19;;;;;;;12.70;3.85;;;;;;;;;;5078955;28;20040;-61